sensor_id;sensor_type;location;lat;lon;timestamp;pressure;altitude;pressure_sealevel;temperature;humidity
57024;BME280;42916;54.346;18.562;2024-01-11T00:02:12;101285.42;;;0.13;100.00
57024;BME280;42916;54.346;18.562;2024-01-11T00:04:40;101289.94;;;0.16;100.00
57024;BME280;42916;54.346;18.562;2024-01-11T00:07:08;101297.16;;;0.17;100.00
57024;BME280;42916;54.346;18.562;2024-01-11T00:09:41;101309.89;;;0.16;100.00
57024;BME280;42916;54.346;18.562;2024-01-11T00:12:08;101316.37;;;0.16;100.00
57024;BME280;42916;54.346;18.562;2024-01-11T00:14:40;101321.15;;;0.16;100.00
57024;BME280;42916;54.346;18.562;2024-01-11T00:17:11;101316.80;;;0.17;100.00
57024;BME280;42916;54.346;18.562;2024-01-11T00:19:45;101323.30;;;0.18;100.00
57024;BME280;42916;54.346;18.562;2024-01-11T00:22:13;101312.86;;;0.19;100.00
57024;BME280;42916;54.346;18.562;2024-01-11T00:24:42;101309.77;;;0.19;100.00
57024;BME280;42916;54.346;18.562;2024-01-11T00:27:16;101318.64;;;0.18;100.00
57024;BME280;42916;54.346;18.562;2024-01-11T00:29:46;101323.36;;;0.17;100.00
57024;BME280;42916;54.346;18.562;2024-01-11T00:32:13;101316.58;;;0.17;100.00
57024;BME280;42916;54.346;18.562;2024-01-11T00:34:41;101305.26;;;0.18;100.00
57024;BME280;42916;54.346;18.562;2024-01-11T00:37:09;101303.29;;;0.18;100.00
57024;BME280;42916;54.346;18.562;2024-01-11T00:39:36;101311.83;;;0.18;100.00
57024;BME280;42916;54.346;18.562;2024-01-11T00:42:05;101307.38;;;0.18;100.00
57024;BME280;42916;54.346;18.562;2024-01-11T00:44:35;101291.76;;;0.17;100.00
57024;BME280;42916;54.346;18.562;2024-01-11T00:47:04;101300.49;;;0.17;100.00
57024;BME280;42916;54.346;18.562;2024-01-11T00:49:33;101285.48;;;0.18;100.00
57024;BME280;42916;54.346;18.562;2024-01-11T00:52:00;101269.24;;;0.16;100.00
57024;BME280;42916;54.346;18.562;2024-01-11T00:54:27;101265.59;;;0.17;100.00
57024;BME280;42916;54.346;18.562;2024-01-11T00:56:56;101256.40;;;0.18;100.00
57024;BME280;42916;54.346;18.562;2024-01-11T00:59:24;101254.63;;;0.18;100.00
57024;BME280;42916;54.346;18.562;2024-01-11T01:01:55;101251.21;;;0.18;100.00
57024;BME280;42916;54.346;18.562;2024-01-11T01:04:22;101260.08;;;0.18;100.00
57024;BME280;42916;54.346;18.562;2024-01-11T01:06:50;101273.70;;;0.20;100.00
57024;BME280;42916;54.346;18.562;2024-01-11T01:09:17;101279.70;;;0.22;100.00
57024;BME280;42916;54.346;18.562;2024-01-11T01:11:43;101285.56;;;0.23;100.00
57024;BME280;42916;54.346;18.562;2024-01-11T01:14:13;101291.84;;;0.25;100.00
57024;BME280;42916;54.346;18.562;2024-01-11T01:16:42;101292.70;;;0.27;100.00
57024;BME280;42916;54.346;18.562;2024-01-11T01:19:12;101303.10;;;0.28;100.00
57024;BME280;42916;54.346;18.562;2024-01-11T01:21:42;101314.69;;;0.30;100.00
57024;BME280;42916;54.346;18.562;2024-01-11T01:24:09;101316.33;;;0.31;100.00
57024;BME280;42916;54.346;18.562;2024-01-11T01:26:37;101305.23;;;0.33;100.00
57024;BME280;42916;54.346;18.562;2024-01-11T01:29:04;101283.51;;;0.34;100.00
57024;BME280;42916;54.346;18.562;2024-01-11T01:31:31;101270.38;;;0.35;100.00
57024;BME280;42916;54.346;18.562;2024-01-11T01:34:07;101259.46;;;0.35;100.00
57024;BME280;42916;54.346;18.562;2024-01-11T01:36:39;101247.68;;;0.35;100.00
57024;BME280;42916;54.346;18.562;2024-01-11T01:39:08;101236.10;;;0.37;100.00
57024;BME280;42916;54.346;18.562;2024-01-11T01:41:37;101228.08;;;0.37;100.00
57024;BME280;42916;54.346;18.562;2024-01-11T01:44:03;101225.27;;;0.39;100.00
57024;BME280;42916;54.346;18.562;2024-01-11T01:46:30;101222.76;;;0.40;100.00
57024;BME280;42916;54.346;18.562;2024-01-11T01:49:00;101213.48;;;0.42;100.00
57024;BME280;42916;54.346;18.562;2024-01-11T01:51:29;101216.27;;;0.42;100.00
57024;BME280;42916;54.346;18.562;2024-01-11T01:53:57;101211.84;;;0.42;100.00
57024;BME280;42916;54.346;18.562;2024-01-11T01:56:30;101212.45;;;0.43;100.00
57024;BME280;42916;54.346;18.562;2024-01-11T01:59:01;101210.61;;;0.44;100.00
57024;BME280;42916;54.346;18.562;2024-01-11T02:01:32;101211.94;;;0.44;100.00
57024;BME280;42916;54.346;18.562;2024-01-11T02:04:01;101210.48;;;0.45;100.00
57024;BME280;42916;54.346;18.562;2024-01-11T02:06:28;101213.64;;;0.45;100.00
57024;BME280;42916;54.346;18.562;2024-01-11T02:08:59;101217.27;;;0.45;100.00
57024;BME280;42916;54.346;18.562;2024-01-11T02:11:27;101223.12;;;0.45;100.00
57024;BME280;42916;54.346;18.562;2024-01-11T02:13:55;101212.27;;;0.45;100.00
57024;BME280;42916;54.346;18.562;2024-01-11T02:16:21;101200.33;;;0.45;100.00
57024;BME280;42916;54.346;18.562;2024-01-11T02:18:51;101181.34;;;0.44;100.00
57024;BME280;42916;54.346;18.562;2024-01-11T02:21:18;101176.35;;;0.44;100.00
57024;BME280;42916;54.346;18.562;2024-01-11T02:24:02;101165.20;;;0.41;100.00
57024;BME280;42916;54.346;18.562;2024-01-11T02:26:30;101161.19;;;0.40;100.00
57024;BME280;42916;54.346;18.562;2024-01-11T02:28:59;101156.80;;;0.38;100.00
57024;BME280;42916;54.346;18.562;2024-01-11T02:31:29;101150.45;;;0.37;100.00
57024;BME280;42916;54.346;18.562;2024-01-11T02:33:56;101148.45;;;0.36;100.00
57024;BME280;42916;54.346;18.562;2024-01-11T02:36:25;101154.17;;;0.36;100.00
57024;BME280;42916;54.346;18.562;2024-01-11T02:38:58;101169.92;;;0.35;100.00
57024;BME280;42916;54.346;18.562;2024-01-11T02:41:26;101158.73;;;0.35;100.00
57024;BME280;42916;54.346;18.562;2024-01-11T02:43:56;101154.91;;;0.35;100.00
57024;BME280;42916;54.346;18.562;2024-01-11T02:46:23;101150.21;;;0.34;100.00
57024;BME280;42916;54.346;18.562;2024-01-11T02:48:50;101132.90;;;0.33;100.00
57024;BME280;42916;54.346;18.562;2024-01-11T02:51:19;101121.36;;;0.32;100.00
57024;BME280;42916;54.346;18.562;2024-01-11T02:53:46;101104.63;;;0.30;100.00
57024;BME280;42916;54.346;18.562;2024-01-11T02:56:12;101097.52;;;0.30;100.00
57024;BME280;42916;54.346;18.562;2024-01-11T02:58:44;101093.70;;;0.28;100.00
57024;BME280;42916;54.346;18.562;2024-01-11T03:01:16;101094.53;;;0.28;100.00
57024;BME280;42916;54.346;18.562;2024-01-11T03:03:42;101082.75;;;0.27;100.00
57024;BME280;42916;54.346;18.562;2024-01-11T03:06:08;101081.13;;;0.25;100.00
57024;BME280;42916;54.346;18.562;2024-01-11T03:08:36;101080.73;;;0.25;100.00
57024;BME280;42916;54.346;18.562;2024-01-11T03:11:06;101086.58;;;0.24;100.00
57024;BME280;42916;54.346;18.562;2024-01-11T03:13:32;101080.80;;;0.23;100.00
57024;BME280;42916;54.346;18.562;2024-01-11T03:16:04;101084.88;;;0.22;100.00
57024;BME280;42916;54.346;18.562;2024-01-11T03:18:34;101082.24;;;0.20;100.00
57024;BME280;42916;54.346;18.562;2024-01-11T03:21:03;101082.34;;;0.16;100.00
57024;BME280;42916;54.346;18.562;2024-01-11T03:23:30;101084.82;;;0.14;100.00
57024;BME280;42916;54.346;18.562;2024-01-11T03:25:57;101089.48;;;0.14;100.00
57024;BME280;42916;54.346;18.562;2024-01-11T03:28:26;101095.73;;;0.14;100.00
57024;BME280;42916;54.346;18.562;2024-01-11T03:30:54;101099.94;;;0.15;100.00
57024;BME280;42916;54.346;18.562;2024-01-11T03:33:23;101089.73;;;0.15;100.00
57024;BME280;42916;54.346;18.562;2024-01-11T03:35:55;101087.58;;;0.14;100.00
57024;BME280;42916;54.346;18.562;2024-01-11T03:38:29;101083.05;;;0.14;100.00
57024;BME280;42916;54.346;18.562;2024-01-11T03:40:56;101089.48;;;0.14;100.00
57024;BME280;42916;54.346;18.562;2024-01-11T03:43:23;101098.58;;;0.16;100.00
57024;BME280;42916;54.346;18.562;2024-01-11T03:45:51;101100.54;;;0.17;100.00
57024;BME280;42916;54.346;18.562;2024-01-11T03:48:21;101100.17;;;0.19;100.00
57024;BME280;42916;54.346;18.562;2024-01-11T03:50:48;101101.45;;;0.21;100.00
57024;BME280;42916;54.346;18.562;2024-01-11T03:53:17;101096.09;;;0.21;100.00
57024;BME280;42916;54.346;18.562;2024-01-11T03:55:47;101085.22;;;0.21;100.00
57024;BME280;42916;54.346;18.562;2024-01-11T03:58:15;101091.60;;;0.21;100.00
57024;BME280;42916;54.346;18.562;2024-01-11T04:00:41;101085.79;;;0.22;100.00
57024;BME280;42916;54.346;18.562;2024-01-11T04:03:11;101087.86;;;0.21;100.00
57024;BME280;42916;54.346;18.562;2024-01-11T04:05:43;101081.27;;;0.24;100.00
57024;BME280;42916;54.346;18.562;2024-01-11T04:08:15;101095.23;;;0.25;100.00
57024;BME280;42916;54.346;18.562;2024-01-11T04:10:42;101088.65;;;0.25;100.00
57024;BME280;42916;54.346;18.562;2024-01-11T04:13:09;101075.21;;;0.24;100.00
57024;BME280;42916;54.346;18.562;2024-01-11T04:15:39;101077.33;;;0.24;100.00
57024;BME280;42916;54.346;18.562;2024-01-11T04:18:08;101077.31;;;0.24;100.00
57024;BME280;42916;54.346;18.562;2024-01-11T04:20:35;101071.80;;;0.22;100.00
57024;BME280;42916;54.346;18.562;2024-01-11T04:23:01;101065.91;;;0.24;100.00
57024;BME280;42916;54.346;18.562;2024-01-11T04:25:31;101058.61;;;0.24;100.00
57024;BME280;42916;54.346;18.562;2024-01-11T04:27:59;101055.44;;;0.25;100.00
57024;BME280;42916;54.346;18.562;2024-01-11T04:30:25;101053.09;;;0.25;100.00
57024;BME280;42916;54.346;18.562;2024-01-11T04:32:52;101052.09;;;0.27;100.00
57024;BME280;42916;54.346;18.562;2024-01-11T04:35:21;101048.77;;;0.27;100.00
57024;BME280;42916;54.346;18.562;2024-01-11T04:37:50;101052.30;;;0.26;100.00
57024;BME280;42916;54.346;18.562;2024-01-11T04:40:21;101044.86;;;0.27;100.00
57024;BME280;42916;54.346;18.562;2024-01-11T04:42:53;101039.54;;;0.29;100.00
57024;BME280;42916;54.346;18.562;2024-01-11T04:45:20;101025.21;;;0.29;100.00
57024;BME280;42916;54.346;18.562;2024-01-11T04:47:50;101032.05;;;0.28;100.00
57024;BME280;42916;54.346;18.562;2024-01-11T04:50:18;101030.67;;;0.28;100.00
57024;BME280;42916;54.346;18.562;2024-01-11T04:52:48;101039.03;;;0.31;100.00
57024;BME280;42916;54.346;18.562;2024-01-11T04:55:16;101037.92;;;0.32;100.00
57024;BME280;42916;54.346;18.562;2024-01-11T04:57:43;101038.16;;;0.33;100.00
57024;BME280;42916;54.346;18.562;2024-01-11T05:00:10;101034.06;;;0.34;100.00
57024;BME280;42916;54.346;18.562;2024-01-11T05:02:41;101029.36;;;0.35;100.00
57024;BME280;42916;54.346;18.562;2024-01-11T05:05:08;101028.85;;;0.35;100.00
57024;BME280;42916;54.346;18.562;2024-01-11T05:07:37;101024.70;;;0.37;100.00
57024;BME280;42916;54.346;18.562;2024-01-11T05:10:06;101025.52;;;0.39;100.00
57024;BME280;42916;54.346;18.562;2024-01-11T05:12:34;101023.46;;;0.42;100.00
57024;BME280;42916;54.346;18.562;2024-01-11T05:15:05;101030.39;;;0.44;100.00
57024;BME280;42916;54.346;18.562;2024-01-11T05:17:35;101031.59;;;0.46;100.00
57024;BME280;42916;54.346;18.562;2024-01-11T05:20:04;101035.10;;;0.46;100.00
57024;BME280;42916;54.346;18.562;2024-01-11T05:22:39;101041.45;;;0.47;100.00
57024;BME280;42916;54.346;18.562;2024-01-11T05:25:06;101041.75;;;0.49;100.00
57024;BME280;42916;54.346;18.562;2024-01-11T05:27:32;101037.66;;;0.50;100.00
57024;BME280;42916;54.346;18.562;2024-01-11T05:30:01;101040.16;;;0.50;100.00
57024;BME280;42916;54.346;18.562;2024-01-11T05:32:27;101042.85;;;0.50;100.00
57024;BME280;42916;54.346;18.562;2024-01-11T05:34:54;101043.67;;;0.51;100.00
57024;BME280;42916;54.346;18.562;2024-01-11T05:37:21;101043.77;;;0.51;100.00
57024;BME280;42916;54.346;18.562;2024-01-11T05:39:48;101051.70;;;0.52;100.00
57024;BME280;42916;54.346;18.562;2024-01-11T05:42:15;101048.96;;;0.53;100.00
57024;BME280;42916;54.346;18.562;2024-01-11T05:44:42;101027.84;;;0.53;100.00
57024;BME280;42916;54.346;18.562;2024-01-11T05:47:10;101021.73;;;0.52;100.00
57024;BME280;42916;54.346;18.562;2024-01-11T05:49:36;101024.88;;;0.51;100.00
57024;BME280;42916;54.346;18.562;2024-01-11T05:52:03;101030.95;;;0.51;100.00
57024;BME280;42916;54.346;18.562;2024-01-11T05:54:30;101038.23;;;0.52;100.00
57024;BME280;42916;54.346;18.562;2024-01-11T05:56:57;101036.48;;;0.53;100.00
57024;BME280;42916;54.346;18.562;2024-01-11T05:59:25;101042.98;;;0.54;100.00
57024;BME280;42916;54.346;18.562;2024-01-11T06:01:55;101047.72;;;0.53;100.00
57024;BME280;42916;54.346;18.562;2024-01-11T06:04:27;101054.08;;;0.52;100.00
57024;BME280;42916;54.346;18.562;2024-01-11T06:06:53;101047.09;;;0.50;100.00
57024;BME280;42916;54.346;18.562;2024-01-11T06:09:21;101056.26;;;0.51;100.00
57024;BME280;42916;54.346;18.562;2024-01-11T06:11:50;101058.77;;;0.51;100.00
57024;BME280;42916;54.346;18.562;2024-01-11T06:14:19;101060.30;;;0.52;100.00
57024;BME280;42916;54.346;18.562;2024-01-11T06:16:45;101052.74;;;0.52;100.00
57024;BME280;42916;54.346;18.562;2024-01-11T06:19:16;101050.10;;;0.52;100.00
57024;BME280;42916;54.346;18.562;2024-01-11T06:21:47;101052.27;;;0.53;100.00
57024;BME280;42916;54.346;18.562;2024-01-11T06:24:24;101055.23;;;0.53;100.00
57024;BME280;42916;54.346;18.562;2024-01-11T06:26:54;101057.66;;;0.53;100.00
57024;BME280;42916;54.346;18.562;2024-01-11T06:29:24;101046.42;;;0.53;100.00
57024;BME280;42916;54.346;18.562;2024-01-11T06:31:56;101041.97;;;0.53;100.00
57024;BME280;42916;54.346;18.562;2024-01-11T06:34:23;101038.79;;;0.53;100.00
57024;BME280;42916;54.346;18.562;2024-01-11T06:36:55;101035.30;;;0.53;100.00
57024;BME280;42916;54.346;18.562;2024-01-11T06:39:28;101036.48;;;0.51;100.00
57024;BME280;42916;54.346;18.562;2024-01-11T06:41:55;101037.98;;;0.50;100.00
57024;BME280;42916;54.346;18.562;2024-01-11T06:44:25;101035.83;;;0.51;100.00
57024;BME280;42916;54.346;18.562;2024-01-11T06:46:57;101041.53;;;0.52;100.00
57024;BME280;42916;54.346;18.562;2024-01-11T06:49:24;101047.85;;;0.52;100.00
57024;BME280;42916;54.346;18.562;2024-01-11T06:51:50;101048.92;;;0.53;100.00
57024;BME280;42916;54.346;18.562;2024-01-11T06:54:19;101048.83;;;0.54;100.00
57024;BME280;42916;54.346;18.562;2024-01-11T06:56:48;101059.00;;;0.54;100.00
57024;BME280;42916;54.346;18.562;2024-01-11T06:59:17;101061.39;;;0.55;100.00
57024;BME280;42916;54.346;18.562;2024-01-11T07:01:44;101059.19;;;0.55;100.00
57024;BME280;42916;54.346;18.562;2024-01-11T07:04:11;101057.77;;;0.55;100.00
57024;BME280;42916;54.346;18.562;2024-01-11T07:06:41;101056.24;;;0.56;100.00
57024;BME280;42916;54.346;18.562;2024-01-11T07:09:18;101057.54;;;0.56;100.00
57024;BME280;42916;54.346;18.562;2024-01-11T07:11:47;101052.60;;;0.54;100.00
57024;BME280;42916;54.346;18.562;2024-01-11T07:14:28;101058.02;;;0.53;100.00
57024;BME280;42916;54.346;18.562;2024-01-11T07:16:58;101048.41;;;0.53;100.00
57024;BME280;42916;54.346;18.562;2024-01-11T07:19:25;101047.52;;;0.51;100.00
57024;BME280;42916;54.346;18.562;2024-01-11T07:21:55;101056.02;;;0.52;100.00
57024;BME280;42916;54.346;18.562;2024-01-11T07:24:24;101064.73;;;0.52;100.00
57024;BME280;42916;54.346;18.562;2024-01-11T07:26:52;101069.21;;;0.54;100.00
57024;BME280;42916;54.346;18.562;2024-01-11T07:29:31;101069.03;;;0.55;100.00
57024;BME280;42916;54.346;18.562;2024-01-11T07:32:04;101070.89;;;0.58;100.00
57024;BME280;42916;54.346;18.562;2024-01-11T07:34:34;101074.71;;;0.59;100.00
57024;BME280;42916;54.346;18.562;2024-01-11T07:37:05;101079.48;;;0.61;100.00
57024;BME280;42916;54.346;18.562;2024-01-11T07:39:47;101074.52;;;0.62;100.00
57024;BME280;42916;54.346;18.562;2024-01-11T07:42:21;101072.84;;;0.64;100.00
57024;BME280;42916;54.346;18.562;2024-01-11T07:44:50;101068.67;;;0.66;100.00
57024;BME280;42916;54.346;18.562;2024-01-11T07:47:20;101071.01;;;0.69;100.00
57024;BME280;42916;54.346;18.562;2024-01-11T07:49:52;101074.52;;;0.71;100.00
57024;BME280;42916;54.346;18.562;2024-01-11T07:52:30;101071.70;;;0.73;100.00
57024;BME280;42916;54.346;18.562;2024-01-11T07:55:20;101058.73;;;0.79;100.00
57024;BME280;42916;54.346;18.562;2024-01-11T07:58:01;101052.83;;;0.80;100.00
57024;BME280;42916;54.346;18.562;2024-01-11T08:00:39;101060.05;;;0.81;100.00
57024;BME280;42916;54.346;18.562;2024-01-11T08:03:32;101059.41;;;0.82;100.00
57024;BME280;42916;54.346;18.562;2024-01-11T08:06:08;101054.81;;;0.83;100.00
57024;BME280;42916;54.346;18.562;2024-01-11T08:08:42;101046.02;;;0.84;100.00
57024;BME280;42916;54.346;18.562;2024-01-11T08:11:38;101045.40;;;0.87;100.00
57024;BME280;42916;54.346;18.562;2024-01-11T08:14:10;101050.20;;;0.89;100.00
57024;BME280;42916;54.346;18.562;2024-01-11T08:16:42;101052.67;;;0.88;100.00
57024;BME280;42916;54.346;18.562;2024-01-11T08:19:14;101063.88;;;0.87;100.00
57024;BME280;42916;54.346;18.562;2024-01-11T08:21:46;101066.14;;;0.84;100.00
57024;BME280;42916;54.346;18.562;2024-01-11T08:24:23;101066.40;;;0.90;100.00
57024;BME280;42916;54.346;18.562;2024-01-11T08:26:52;101065.49;;;1.02;100.00
57024;BME280;42916;54.346;18.562;2024-01-11T08:29:24;101063.77;;;1.13;100.00
57024;BME280;42916;54.346;18.562;2024-01-11T08:32:11;101064.67;;;1.20;100.00
57024;BME280;42916;54.346;18.562;2024-01-11T08:34:43;101063.96;;;1.25;100.00
57024;BME280;42916;54.346;18.562;2024-01-11T08:40:53;101057.42;;;1.40;100.00
57024;BME280;42916;54.346;18.562;2024-01-11T08:43:23;101058.83;;;1.49;100.00
57024;BME280;42916;54.346;18.562;2024-01-11T08:45:51;101061.55;;;1.57;100.00
57024;BME280;42916;54.346;18.562;2024-01-11T08:48:21;101063.45;;;1.65;100.00
57024;BME280;42916;54.346;18.562;2024-01-11T08:50:51;101058.02;;;1.72;100.00
57024;BME280;42916;54.346;18.562;2024-01-11T08:53:55;101049.76;;;1.73;100.00
57024;BME280;42916;54.346;18.562;2024-01-11T08:56:29;101047.05;;;1.71;100.00
57024;BME280;42916;54.346;18.562;2024-01-11T08:59:29;101043.11;;;1.66;100.00
57024;BME280;42916;54.346;18.562;2024-01-11T09:02:01;101045.92;;;1.69;100.00
57024;BME280;42916;54.346;18.562;2024-01-11T09:04:30;101045.30;;;1.78;100.00
57024;BME280;42916;54.346;18.562;2024-01-11T09:07:08;101045.83;;;1.81;100.00
57024;BME280;42916;54.346;18.562;2024-01-11T09:09:39;101049.45;;;1.85;100.00
57024;BME280;42916;54.346;18.562;2024-01-11T09:12:09;101045.22;;;1.84;100.00
57024;BME280;42916;54.346;18.562;2024-01-11T09:14:38;101040.67;;;1.83;100.00
57024;BME280;42916;54.346;18.562;2024-01-11T09:17:06;101040.67;;;1.86;100.00
57024;BME280;42916;54.346;18.562;2024-01-11T09:19:35;101043.98;;;1.89;100.00
57024;BME280;42916;54.346;18.562;2024-01-11T09:22:06;101046.30;;;1.91;100.00
57024;BME280;42916;54.346;18.562;2024-01-11T09:24:39;101052.36;;;1.97;100.00
57024;BME280;42916;54.346;18.562;2024-01-11T09:27:53;101042.77;;;2.04;100.00
57024;BME280;42916;54.346;18.562;2024-01-11T09:30:31;101046.70;;;2.19;100.00
57024;BME280;42916;54.346;18.562;2024-01-11T09:33:01;101041.35;;;2.23;100.00
57024;BME280;42916;54.346;18.562;2024-01-11T09:35:37;101047.97;;;2.28;100.00
57024;BME280;42916;54.346;18.562;2024-01-11T09:38:09;101044.72;;;2.29;100.00
57024;BME280;42916;54.346;18.562;2024-01-11T09:40:37;101043.75;;;2.48;100.00
57024;BME280;42916;54.346;18.562;2024-01-11T09:43:09;101039.49;;;2.70;100.00
57024;BME280;42916;54.346;18.562;2024-01-11T09:45:40;101048.14;;;2.67;100.00
57024;BME280;42916;54.346;18.562;2024-01-11T09:48:11;101049.69;;;2.75;100.00
57024;BME280;42916;54.346;18.562;2024-01-11T09:50:44;101049.05;;;2.66;100.00
57024;BME280;42916;54.346;18.562;2024-01-11T09:53:18;101051.95;;;2.75;100.00
57024;BME280;42916;54.346;18.562;2024-01-11T09:55:47;101052.71;;;2.76;100.00
57024;BME280;42916;54.346;18.562;2024-01-11T09:58:18;101049.21;;;2.71;100.00
57024;BME280;42916;54.346;18.562;2024-01-11T10:00:48;101052.86;;;2.75;100.00
57024;BME280;42916;54.346;18.562;2024-01-11T10:03:20;101058.16;;;2.93;100.00
57024;BME280;42916;54.346;18.562;2024-01-11T10:05:53;101054.19;;;2.92;100.00
57024;BME280;42916;54.346;18.562;2024-01-11T10:08:25;101061.34;;;2.85;100.00
57024;BME280;42916;54.346;18.562;2024-01-11T10:10:56;101058.45;;;2.78;100.00
57024;BME280;42916;54.346;18.562;2024-01-11T10:13:31;101056.59;;;2.72;100.00
57024;BME280;42916;54.346;18.562;2024-01-11T10:16:14;101055.23;;;2.70;100.00
57024;BME280;42916;54.346;18.562;2024-01-11T10:18:56;101062.73;;;2.70;100.00
57024;BME280;42916;54.346;18.562;2024-01-11T10:21:31;101070.34;;;2.68;100.00
57024;BME280;42916;54.346;18.562;2024-01-11T10:23:59;101062.58;;;2.65;100.00
57024;BME280;42916;54.346;18.562;2024-01-11T10:26:32;101061.59;;;2.62;100.00
57024;BME280;42916;54.346;18.562;2024-01-11T10:29:06;101064.06;;;2.59;100.00
57024;BME280;42916;54.346;18.562;2024-01-11T10:35:46;101063.13;;;2.63;100.00
57024;BME280;42916;54.346;18.562;2024-01-11T10:39:14;101061.84;;;2.66;100.00
57024;BME280;42916;54.346;18.562;2024-01-11T10:41:47;101059.16;;;2.62;100.00
57024;BME280;42916;54.346;18.562;2024-01-11T10:44:20;101054.48;;;2.63;100.00
57024;BME280;42916;54.346;18.562;2024-01-11T10:46:55;101045.04;;;2.61;100.00
57024;BME280;42916;54.346;18.562;2024-01-11T10:49:39;101042.90;;;2.58;100.00
57024;BME280;42916;54.346;18.562;2024-01-11T10:52:22;101038.30;;;2.53;100.00
57024;BME280;42916;54.346;18.562;2024-01-11T10:54:52;101046.53;;;2.54;100.00
57024;BME280;42916;54.346;18.562;2024-01-11T10:57:23;101045.96;;;2.59;100.00
57024;BME280;42916;54.346;18.562;2024-01-11T11:00:01;101050.06;;;2.62;100.00
57024;BME280;42916;54.346;18.562;2024-01-11T11:02:33;101062.65;;;2.60;100.00
57024;BME280;42916;54.346;18.562;2024-01-11T11:05:34;101067.36;;;2.64;100.00
57024;BME280;42916;54.346;18.562;2024-01-11T11:08:09;101065.95;;;2.64;100.00
57024;BME280;42916;54.346;18.562;2024-01-11T11:11:02;101071.58;;;2.65;100.00
57024;BME280;42916;54.346;18.562;2024-01-11T11:14:03;101056.09;;;2.58;100.00
57024;BME280;42916;54.346;18.562;2024-01-11T11:16:38;101047.77;;;2.53;100.00
57024;BME280;42916;54.346;18.562;2024-01-11T11:19:08;101044.75;;;2.51;100.00
57024;BME280;42916;54.346;18.562;2024-01-11T11:21:44;101042.73;;;2.52;100.00
57024;BME280;42916;54.346;18.562;2024-01-11T11:24:12;101042.16;;;2.52;100.00
57024;BME280;42916;54.346;18.562;2024-01-11T11:26:41;101040.84;;;2.51;100.00
57024;BME280;42916;54.346;18.562;2024-01-11T11:29:14;101041.89;;;2.51;100.00
57024;BME280;42916;54.346;18.562;2024-01-11T11:31:54;101036.63;;;2.55;100.00
57024;BME280;42916;54.346;18.562;2024-01-11T11:34:42;101038.24;;;2.56;100.00
57024;BME280;42916;54.346;18.562;2024-01-11T11:37:23;101039.83;;;2.67;100.00
57024;BME280;42916;54.346;18.562;2024-01-11T11:39:56;101038.49;;;2.69;100.00
57024;BME280;42916;54.346;18.562;2024-01-11T11:42:42;101046.11;;;2.73;100.00
57024;BME280;42916;54.346;18.562;2024-01-11T11:45:30;101046.73;;;2.79;100.00
57024;BME280;42916;54.346;18.562;2024-01-11T11:51:09;101056.29;;;3.02;100.00
57024;BME280;42916;54.346;18.562;2024-01-11T11:53:41;101051.98;;;3.08;100.00
57024;BME280;42916;54.346;18.562;2024-01-11T11:56:37;101053.89;;;3.22;100.00
57024;BME280;42916;54.346;18.562;2024-01-11T11:59:08;101045.42;;;3.26;100.00
57024;BME280;42916;54.346;18.562;2024-01-11T12:01:46;101038.02;;;3.35;100.00
57024;BME280;42916;54.346;18.562;2024-01-11T12:04:16;101034.97;;;3.40;100.00
57024;BME280;42916;54.346;18.562;2024-01-11T12:07:04;101036.33;;;3.49;100.00
57024;BME280;42916;54.346;18.562;2024-01-11T12:10:14;101039.39;;;3.60;100.00
57024;BME280;42916;54.346;18.562;2024-01-11T12:12:41;101038.59;;;3.65;100.00
57024;BME280;42916;54.346;18.562;2024-01-11T12:15:12;101036.93;;;3.64;100.00
57024;BME280;42916;54.346;18.562;2024-01-11T12:17:40;101041.52;;;3.58;100.00
57024;BME280;42916;54.346;18.562;2024-01-11T12:20:10;101041.91;;;3.52;100.00
57024;BME280;42916;54.346;18.562;2024-01-11T12:22:42;101043.13;;;3.41;100.00
57024;BME280;42916;54.346;18.562;2024-01-11T12:25:10;101043.10;;;3.25;100.00
57024;BME280;42916;54.346;18.562;2024-01-11T12:27:40;101043.45;;;3.15;100.00
57024;BME280;42916;54.346;18.562;2024-01-11T12:30:07;101036.61;;;3.06;100.00
57024;BME280;42916;54.346;18.562;2024-01-11T12:32:39;101030.94;;;2.97;100.00
57024;BME280;42916;54.346;18.562;2024-01-11T12:35:31;101039.79;;;2.85;100.00
57024;BME280;42916;54.346;18.562;2024-01-11T12:38:07;101040.07;;;2.73;100.00
57024;BME280;42916;54.346;18.562;2024-01-11T12:40:42;101037.30;;;2.59;100.00
57024;BME280;42916;54.346;18.562;2024-01-11T12:43:17;101034.61;;;2.55;100.00
57024;BME280;42916;54.346;18.562;2024-01-11T12:45:45;101039.09;;;2.60;100.00
57024;BME280;42916;54.346;18.562;2024-01-11T12:48:31;101041.11;;;2.56;100.00
57024;BME280;42916;54.346;18.562;2024-01-11T12:51:07;101036.36;;;2.51;100.00
57024;BME280;42916;54.346;18.562;2024-01-11T12:53:53;101040.44;;;2.50;100.00
57024;BME280;42916;54.346;18.562;2024-01-11T12:56:25;101038.98;;;2.49;100.00
57024;BME280;42916;54.346;18.562;2024-01-11T12:59:22;101039.29;;;2.48;100.00
57024;BME280;42916;54.346;18.562;2024-01-11T13:01:59;101037.44;;;2.51;100.00
57024;BME280;42916;54.346;18.562;2024-01-11T13:04:34;101038.79;;;2.53;100.00
57024;BME280;42916;54.346;18.562;2024-01-11T13:07:06;101035.50;;;2.55;100.00
57024;BME280;42916;54.346;18.562;2024-01-11T13:09:36;101034.66;;;2.56;100.00
57024;BME280;42916;54.346;18.562;2024-01-11T13:12:07;101033.55;;;2.57;100.00
57024;BME280;42916;54.346;18.562;2024-01-11T13:14:41;101037.18;;;2.60;100.00
57024;BME280;42916;54.346;18.562;2024-01-11T13:17:47;101046.48;;;2.63;100.00